Time;durP1;ratioP1;P1;durP2;ratioP2;P2;SDS_P1;SDS_P2;PMS_P1;PMS_P2;Temp;Humidity;BMP_temperature;BMP_pressure;BME280_temperature;BME280_humidity;BME280_pressure;Samples;Min_cycle;Max_cycle;Signal;HPM_P1;HPM_P2
2022/05/14 00:00:24;;;;;;;;;;;;;;;15.43;nan;99972.38;5019127;28;20415;-76
2022/05/14 00:02:50;;;;;;;;;;;;;;;15.46;nan;99977.44;5023543;28;20030;-77
2022/05/14 00:05:17;;;;;;;;;;;;;;;15.46;nan;99974.78;5004123;28;20022;-77
2022/05/14 00:07:42;;;;;;;;;;;;;;;15.44;nan;99976.72;5006355;28;19932;-77
2022/05/14 00:10:08;;;;;;;;;;;;;;;15.40;nan;99970.81;5006242;28;19947;-77
2022/05/14 00:15:17;;;;;;;;;;;;;;;15.36;nan;99976.47;5019304;28;20445;-75
2022/05/14 00:17:42;;;;;;;;;;;;;;;15.25;nan;99979.94;5021221;28;20085;-78
2022/05/14 00:20:08;;;;;;;;;;;;;;;15.15;nan;99978.94;5018811;28;19950;-77
2022/05/14 00:22:33;;;;;;;;;;;;;;;15.08;nan;99981.25;4989758;28;20472;-78
2022/05/14 00:24:59;;;;;;;;;;;;;;;15.03;nan;99986.88;5018317;28;19968;-77
2022/05/14 00:27:24;;;;;;;;;;;;;;;14.89;nan;99980.97;5024256;28;19990;-77
2022/05/14 00:29:50;;;;;;;;;;;;;;;14.73;nan;99984.75;5013034;28;19983;-78
2022/05/14 00:32:15;;;;;;;;;;;;;;;14.62;nan;99986.53;5020620;28;20442;-77
2022/05/14 00:34:41;;;;;;;;;;;;;;;14.42;nan;99983.53;5023405;28;19972;-77
2022/05/14 00:37:06;;;;;;;;;;;;;;;14.29;nan;99983.56;5014196;28;20050;-77
2022/05/14 00:39:31;;;;;;;;;;;;;;;14.22;nan;99982.31;5015854;28;19988;-75
2022/05/14 00:41:57;;;;;;;;;;;;;;;14.19;nan;99985.19;5004284;28;20388;-77
2022/05/14 00:44:22;;;;;;;;;;;;;;;14.17;nan;99987.09;5017875;28;19968;-78
2022/05/14 00:46:57;;;;;;;;;;;;;;;14.16;nan;99983.63;5008823;28;20073;-75
2022/05/14 00:49:24;;;;;;;;;;;;;;;14.23;nan;99976.09;5028510;28;20038;-76
2022/05/14 00:51:49;;;;;;;;;;;;;;;14.28;nan;99983.66;5022701;28;20279;-78
2022/05/14 00:54:17;;;;;;;;;;;;;;;14.32;nan;99979.88;5015055;28;20042;-77
2022/05/14 00:56:46;;;;;;;;;;;;;;;14.29;nan;99973.00;5004159;28;19995;-77
2022/05/14 00:59:13;;;;;;;;;;;;;;;14.22;nan;99974.41;5014655;28;20090;-76
2022/05/14 01:01:39;;;;;;;;;;;;;;;14.22;nan;99973.56;5038168;28;20006;-78
2022/05/14 01:04:05;;;;;;;;;;;;;;;14.22;nan;99976.19;5007985;28;20019;-76
2022/05/14 01:06:31;;;;;;;;;;;;;;;14.18;nan;99970.31;5006550;28;19964;-78
2022/05/14 01:08:59;;;;;;;;;;;;;;;14.16;nan;99969.56;5040679;28;19984;-78
2022/05/14 01:11:25;;;;;;;;;;;;;;;14.13;nan;99969.78;5024289;28;19971;-76
2022/05/14 01:13:50;;;;;;;;;;;;;;;14.12;nan;99974.25;5028785;28;20492;-78
2022/05/14 01:16:16;;;;;;;;;;;;;;;14.10;nan;99975.31;5005970;28;20075;-78
2022/05/14 01:18:41;;;;;;;;;;;;;;;14.09;nan;99970.97;5013438;28;19991;-76
2022/05/14 01:21:13;;;;;;;;;;;;;;;14.04;nan;99968.66;5036199;28;20045;-78
2022/05/14 01:26:30;;;;;;;;;;;;;;;13.95;nan;99969.31;5003897;28;19972;-77
2022/05/14 01:29:05;;;;;;;;;;;;;;;13.91;nan;99979.25;5010139;28;19988;-76
2022/05/14 01:31:31;;;;;;;;;;;;;;;13.90;nan;99974.09;5009010;28;19956;-78
2022/05/14 01:34:02;;;;;;;;;;;;;;;13.90;nan;99974.09;5017444;28;20030;-78
2022/05/14 01:36:29;;;;;;;;;;;;;;;13.88;nan;99982.13;5003528;28;19992;-76
2022/05/14 01:38:55;;;;;;;;;;;;;;;13.84;nan;99985.94;5027409;28;19990;-77
2022/05/14 01:41:22;;;;;;;;;;;;;;;13.82;nan;99981.69;5022971;28;19968;-78
2022/05/14 01:43:48;;;;;;;;;;;;;;;13.79;nan;99979.28;5012549;28;19974;-76
2022/05/14 01:46:14;;;;;;;;;;;;;;;13.75;nan;99986.59;5039513;28;20014;-77
2022/05/14 01:48:39;;;;;;;;;;;;;;;13.71;nan;99985.09;5027328;28;19984;-77
2022/05/14 01:51:04;;;;;;;;;;;;;;;13.70;nan;99986.06;5020642;28;19987;-76
2022/05/14 01:53:30;;;;;;;;;;;;;;;13.65;nan;99983.75;5023958;28;20368;-76
2022/05/14 01:55:56;;;;;;;;;;;;;;;13.62;nan;99986.59;5027764;28;19964;-77
2022/05/14 01:58:37;;;;;;;;;;;;;;;13.57;nan;99987.88;5011459;28;20031;-76
2022/05/14 02:01:12;;;;;;;;;;;;;;;13.47;nan;99982.38;5009677;28;19976;-78
2022/05/14 02:03:38;;;;;;;;;;;;;;;13.36;nan;99984.94;5004706;28;19968;-76
2022/05/14 02:06:03;;;;;;;;;;;;;;;13.26;nan;99992.66;5006435;28;20229;-78
2022/05/14 02:08:29;;;;;;;;;;;;;;;13.23;nan;99990.16;5015029;28;19999;-78
2022/05/14 02:10:54;;;;;;;;;;;;;;;13.20;nan;99985.09;5038238;28;19993;-76
2022/05/14 02:13:21;;;;;;;;;;;;;;;13.14;nan;99985.53;5030124;28;19964;-78
2022/05/14 02:15:46;;;;;;;;;;;;;;;13.12;nan;99990.06;5020398;28;20355;-75
2022/05/14 02:18:13;;;;;;;;;;;;;;;13.11;nan;99986.59;5014721;28;19988;-76
2022/05/14 02:20:38;;;;;;;;;;;;;;;13.10;nan;99989.34;5033597;28;19983;-78
2022/05/14 02:23:03;;;;;;;;;;;;;;;13.02;nan;99980.16;5033371;28;20428;-76
2022/05/14 02:25:29;;;;;;;;;;;;;;;13.00;nan;99984.69;5032668;28;20014;-77
2022/05/14 02:27:54;;;;;;;;;;;;;;;13.01;nan;99986.34;5005555;28;20030;-78
2022/05/14 02:30:20;;;;;;;;;;;;;;;13.00;nan;99978.56;5014177;28;20457;-76
2022/05/14 02:32:45;;;;;;;;;;;;;;;12.95;nan;99980.66;5011872;28;20030;-77
2022/05/14 02:35:11;;;;;;;;;;;;;;;12.89;nan;99967.91;5030461;28;19960;-78
2022/05/14 02:37:36;;;;;;;;;;;;;;;12.80;nan;99972.84;5038979;28;19984;-76
2022/05/14 02:40:01;;;;;;;;;;;;;;;12.75;nan;99980.22;5027043;28;20196;-78
2022/05/14 02:42:27;;;;;;;;;;;;;;;12.72;nan;99982.19;5014566;28;19968;-78
2022/05/14 02:44:52;;;;;;;;;;;;;;;12.73;nan;99982.09;5013546;28;19968;-76
2022/05/14 02:47:19;;;;;;;;;;;;;;;12.79;nan;99972.94;5025910;28;19968;-77
2022/05/14 02:49:44;;;;;;;;;;;;;;;12.79;nan;99975.56;5007428;28;20463;-78
2022/05/14 02:52:10;;;;;;;;;;;;;;;12.75;nan;99972.31;5040849;28;19968;-76
2022/05/14 02:54:37;;;;;;;;;;;;;;;12.69;nan;99971.84;5036088;28;19972;-78
2022/05/14 02:57:02;;;;;;;;;;;;;;;12.58;nan;99965.53;5007911;28;20002;-78
2022/05/14 02:59:28;;;;;;;;;;;;;;;12.49;nan;99970.56;5008609;28;20161;-77
2022/05/14 03:01:54;;;;;;;;;;;;;;;12.42;nan;99972.72;5010872;28;20172;-78
2022/05/14 03:04:22;;;;;;;;;;;;;;;12.35;nan;99966.19;5008669;28;20017;-76
2022/05/14 03:06:49;;;;;;;;;;;;;;;12.28;nan;99967.53;5022477;28;19978;-77
2022/05/14 03:09:14;;;;;;;;;;;;;;;12.20;nan;99975.06;5013624;28;20532;-77
2022/05/14 03:11:40;;;;;;;;;;;;;;;12.15;nan;99973.59;5020630;28;20055;-78
2022/05/14 03:14:05;;;;;;;;;;;;;;;12.13;nan;99972.00;5011113;28;19964;-75
2022/05/14 03:16:31;;;;;;;;;;;;;;;12.10;nan;99978.31;5015386;28;20034;-77
2022/05/14 03:18:56;;;;;;;;;;;;;;;12.04;nan;99977.84;5026505;28;20057;-77
2022/05/14 03:21:22;;;;;;;;;;;;;;;12.02;nan;99975.31;5016830;28;20010;-76
2022/05/14 03:23:47;;;;;;;;;;;;;;;12.06;nan;99973.34;5014921;28;20469;-77
2022/05/14 03:26:13;;;;;;;;;;;;;;;12.12;nan;99972.94;5028171;28;19999;-76
2022/05/14 03:28:38;;;;;;;;;;;;;;;12.17;nan;99965.59;5044017;28;20093;-75
2022/05/14 03:31:03;;;;;;;;;;;;;;;12.20;nan;99961.91;5020369;28;20276;-77
2022/05/14 03:33:30;;;;;;;;;;;;;;;12.20;nan;99967.19;5025147;28;19967;-75
2022/05/14 03:35:56;;;;;;;;;;;;;;;12.19;nan;99974.25;5022599;28;20058;-77
2022/05/14 03:38:21;;;;;;;;;;;;;;;12.17;nan;99961.16;5024693;28;20043;-77
2022/05/14 03:40:47;;;;;;;;;;;;;;;12.18;nan;99968.13;5008508;28;19964;-75
2022/05/14 03:43:13;;;;;;;;;;;;;;;12.14;nan;99974.53;5023625;28;19996;-76
2022/05/14 03:45:39;;;;;;;;;;;;;;;12.11;nan;99982.63;5002539;28;20459;-77
2022/05/14 03:48:04;;;;;;;;;;;;;;;12.05;nan;99982.19;5022238;28;19971;-75
2022/05/14 03:50:30;;;;;;;;;;;;;;;11.99;nan;99979.91;5021803;28;20612;-76
2022/05/14 03:52:55;;;;;;;;;;;;;;;11.94;nan;99980.25;5023925;28;20268;-77
2022/05/14 03:55:20;;;;;;;;;;;;;;;11.90;nan;99974.28;5026317;28;20447;-77
2022/05/14 03:57:46;;;;;;;;;;;;;;;11.93;nan;99981.16;5005380;28;20512;-77
2022/05/14 04:00:11;;;;;;;;;;;;;;;11.95;nan;99982.75;5005095;28;19964;-77
2022/05/14 04:02:41;;;;;;;;;;;;;;;11.90;nan;99984.00;5013209;28;20073;-76
2022/05/14 04:05:08;;;;;;;;;;;;;;;11.88;nan;99985.88;5010731;28;20441;-77
2022/05/14 04:07:33;;;;;;;;;;;;;;;11.89;nan;99979.69;5019120;28;19984;-77
2022/05/14 04:09:59;;;;;;;;;;;;;;;11.95;nan;99980.13;5005237;28;19980;-75
2022/05/14 04:12:24;;;;;;;;;;;;;;;11.96;nan;99978.31;5021825;28;19983;-76
2022/05/14 04:14:49;;;;;;;;;;;;;;;11.94;nan;99983.72;5030205;28;19975;-77
2022/05/14 04:17:15;;;;;;;;;;;;;;;11.96;nan;99983.59;5039412;28;20348;-77
2022/05/14 04:19:40;;;;;;;;;;;;;;;11.99;nan;99982.56;5009126;28;20019;-77
2022/05/14 04:22:06;;;;;;;;;;;;;;;11.98;nan;99986.13;5007183;28;19960;-75
2022/05/14 04:24:32;;;;;;;;;;;;;;;12.00;nan;99984.25;5005123;28;19979;-75
2022/05/14 04:26:58;;;;;;;;;;;;;;;11.98;nan;99981.72;5011349;28;20220;-77
2022/05/14 04:29:24;;;;;;;;;;;;;;;12.00;nan;99982.47;5020518;28;20099;-76
2022/05/14 04:31:49;;;;;;;;;;;;;;;12.04;nan;99988.38;5008137;28;20014;-77
2022/05/14 04:34:14;;;;;;;;;;;;;;;12.06;nan;99989.13;5007374;28;19968;-77
2022/05/14 04:36:41;;;;;;;;;;;;;;;12.01;nan;99993.84;5011398;28;19988;-76
2022/05/14 04:39:09;;;;;;;;;;;;;;;11.88;nan;99989.38;5036279;28;19986;-76
2022/05/14 04:41:34;;;;;;;;;;;;;;;11.80;nan;99988.09;5017375;28;20426;-77
2022/05/14 04:44:02;;;;;;;;;;;;;;;11.81;nan;99985.38;5027879;28;19964;-76
2022/05/14 04:46:28;;;;;;;;;;;;;;;11.92;nan;99987.38;5032480;28;20770;-76
2022/05/14 04:48:54;;;;;;;;;;;;;;;12.09;nan;99991.56;5006111;28;20269;-75
2022/05/14 04:51:20;;;;;;;;;;;;;;;12.31;nan;99991.91;5017934;28;20333;-76
2022/05/14 04:53:46;;;;;;;;;;;;;;;12.50;nan;99991.53;5023730;28;19982;-77
2022/05/14 04:56:11;;;;;;;;;;;;;;;12.61;nan;99999.59;5025058;28;20195;-77
2022/05/14 04:58:36;;;;;;;;;;;;;;;12.71;nan;99999.81;5021939;28;20498;-75
2022/05/14 05:01:03;;;;;;;;;;;;;;;12.95;nan;99988.56;5021598;23;20067;-73
2022/05/14 05:03:28;;;;;;;;;;;;;;;13.46;nan;99999.19;4988591;28;19975;-73
2022/05/14 05:05:59;;;;;;;;;;;;;;;13.77;nan;100000.53;4999645;28;19960;-72
2022/05/14 05:08:27;;;;;;;;;;;;;;;14.07;nan;100001.91;5000764;28;20676;-72
2022/05/14 05:10:53;;;;;;;;;;;;;;;14.65;nan;99994.22;5001143;28;20449;-72
2022/05/14 05:13:20;;;;;;;;;;;;;;;15.28;nan;99985.00;4999591;28;19968;-72
2022/05/14 05:15:46;;;;;;;;;;;;;;;15.89;nan;99989.97;4999775;28;19975;-72
2022/05/14 05:18:11;;;;;;;;;;;;;;;16.48;nan;99988.75;5000654;28;20403;-73
2022/05/14 05:20:38;;;;;;;;;;;;;;;16.86;nan;99984.78;4999631;28;19975;-73
2022/05/14 05:23:04;;;;;;;;;;;;;;;17.32;nan;99986.16;5002014;28;19979;-73
2022/05/14 05:25:29;;;;;;;;;;;;;;;17.65;nan;99985.06;4999632;28;19972;-73
2022/05/14 05:27:55;;;;;;;;;;;;;;;17.94;nan;99982.53;4999102;28;20363;-73
2022/05/14 05:30:20;;;;;;;;;;;;;;;18.27;nan;99994.63;5001695;28;20440;-73
2022/05/14 05:32:46;;;;;;;;;;;;;;;18.58;nan;99981.25;5000445;28;19964;-73
2022/05/14 05:35:11;;;;;;;;;;;;;;;18.89;nan;99986.44;5000412;28;19995;-72
2022/05/14 05:37:37;;;;;;;;;;;;;;;19.12;nan;99978.94;4999926;28;20460;-72
2022/05/14 05:40:03;;;;;;;;;;;;;;;19.22;nan;99974.44;5000428;28;19984;-72
2022/05/14 05:42:29;;;;;;;;;;;;;;;19.29;nan;99983.56;5000733;28;20018;-72
2022/05/14 05:44:55;;;;;;;;;;;;;;;19.54;nan;99979.41;4999971;28;20075;-73
2022/05/14 05:47:21;;;;;;;;;;;;;;;19.95;nan;99982.59;4998717;28;20054;-73
2022/05/14 05:49:46;;;;;;;;;;;;;;;20.29;nan;99981.97;5000791;28;20433;-72
2022/05/14 05:52:12;;;;;;;;;;;;;;;20.42;nan;99987.78;5000703;28;20015;-73
2022/05/14 05:57:35;;;;;;;;;;;;;;;19.62;nan;99990.16;4999887;28;20046;-73
2022/05/14 06:00:02;;;;;;;;;;;;;;;19.82;nan;99987.44;4997862;28;20030;-73
2022/05/14 06:02:36;;;;;;;;;;;;;;;20.37;nan;99982.06;5002244;28;20070;-73
2022/05/14 06:05:04;;;;;;;;;;;;;;;20.75;nan;99986.28;5002510;28;20420;-73
2022/05/14 06:07:29;;;;;;;;;;;;;;;20.81;nan;99987.50;5004536;28;19972;-71
2022/05/14 06:09:54;;;;;;;;;;;;;;;20.67;nan;99993.38;5003805;28;19988;-72
2022/05/14 06:12:23;;;;;;;;;;;;;;;20.41;nan;99987.94;5004437;28;19969;-71
2022/05/14 06:14:49;;;;;;;;;;;;;;;20.37;nan;99986.56;5004366;28;19966;-72
2022/05/14 06:17:15;;;;;;;;;;;;;;;20.35;nan;99992.03;5004357;28;20000;-72
2022/05/14 06:19:42;;;;;;;;;;;;;;;20.14;nan;99991.47;5003742;28;19977;-71
2022/05/14 06:22:08;;;;;;;;;;;;;;;19.82;nan;99992.75;5004937;28;20348;-72
2022/05/14 06:24:35;;;;;;;;;;;;;;;19.65;nan;99991.69;5004186;28;19968;-71
2022/05/14 06:27:00;;;;;;;;;;;;;;;19.42;nan;100001.88;5007637;28;19971;-71
2022/05/14 06:29:26;;;;;;;;;;;;;;;19.03;nan;100001.94;5004406;28;19980;-72
2022/05/14 06:31:51;;;;;;;;;;;;;;;18.66;nan;99993.81;5003678;28;19965;-72
2022/05/14 06:34:16;;;;;;;;;;;;;;;18.48;nan;99997.19;5004528;28;20431;-72
2022/05/14 06:36:42;;;;;;;;;;;;;;;18.48;nan;100004.34;5004649;28;19988;-72
2022/05/14 06:39:07;;;;;;;;;;;;;;;18.97;nan;100005.19;5004736;28;19964;-71
2022/05/14 06:41:32;;;;;;;;;;;;;;;19.51;nan;99998.34;5007037;28;19972;-71
2022/05/14 06:43:58;;;;;;;;;;;;;;;19.99;nan;100005.31;5008421;28;19994;-71
2022/05/14 06:46:23;;;;;;;;;;;;;;;20.28;nan;100001.63;5008253;28;20037;-72
2022/05/14 06:48:48;;;;;;;;;;;;;;;20.69;nan;99994.06;5007984;28;19936;-71
2022/05/14 06:51:21;;;;;;;;;;;;;;;21.32;nan;99987.69;5008257;28;20470;-72
2022/05/14 06:53:48;;;;;;;;;;;;;;;21.83;nan;99989.50;5008964;28;19972;-72
2022/05/14 06:56:14;;;;;;;;;;;;;;;22.26;nan;99992.19;5008396;28;20027;-72
2022/05/14 06:58:40;;;;;;;;;;;;;;;22.46;nan;99998.06;5006540;28;19976;-72
2022/05/14 07:01:07;;;;;;;;;;;;;;;22.60;nan;99997.44;5006390;28;19990;-72
2022/05/14 07:09:04;;;;;;;;;;;;;;;23.52;nan;99994.50;5009561;28;19945;-74
2022/05/14 07:11:29;;;;;;;;;;;;;;;23.68;nan;99991.75;5009529;28;19949;-74
2022/05/14 07:13:54;;;;;;;;;;;;;;;23.87;nan;99989.72;5007263;28;19942;-73
2022/05/14 07:16:20;;;;;;;;;;;;;;;24.26;nan;99995.06;5008020;28;19973;-72
2022/05/14 07:18:45;;;;;;;;;;;;;;;24.72;nan;99995.94;5008150;28;19946;-74
2022/05/14 07:21:11;;;;;;;;;;;;;;;24.80;nan;99988.84;5008717;28;19962;-73
2022/05/14 07:23:36;;;;;;;;;;;;;;;24.90;nan;99987.59;5008069;28;19949;-73
2022/05/14 07:26:05;;;;;;;;;;;;;;;25.08;nan;99983.72;5008468;28;19939;-72
2022/05/14 07:28:31;;;;;;;;;;;;;;;25.31;nan;99984.53;5008759;28;19930;-72
2022/05/14 07:30:57;;;;;;;;;;;;;;;25.55;nan;99986.13;5008443;28;19993;-72
2022/05/14 07:33:22;;;;;;;;;;;;;;;25.48;nan;99982.50;5007039;28;19934;-72
2022/05/14 07:35:48;;;;;;;;;;;;;;;25.57;nan;99984.09;5008658;28;19938;-73
2022/05/14 07:38:13;;;;;;;;;;;;;;;25.73;nan;99980.34;5008271;28;20005;-73
2022/05/14 07:40:39;;;;;;;;;;;;;;;26.00;nan;99978.00;5008263;28;19986;-71
2022/05/14 07:43:15;;;;;;;;;;;;;;;26.15;nan;99978.00;5008763;28;19966;-73
2022/05/14 07:45:42;;;;;;;;;;;;;;;26.27;nan;99977.31;5007539;28;19978;-73
2022/05/14 07:48:11;;;;;;;;;;;;;;;26.40;nan;99976.59;5007363;28;19933;-72
2022/05/14 07:50:36;;;;;;;;;;;;;;;26.48;nan;99968.38;5008524;28;19955;-73
2022/05/14 07:53:02;;;;;;;;;;;;;;;26.48;nan;99964.88;5034389;28;19934;-73
2022/05/14 07:55:28;;;;;;;;;;;;;;;26.31;nan;99961.59;5007365;28;19933;-72
2022/05/14 07:57:53;;;;;;;;;;;;;;;26.09;nan;99974.22;5007000;28;20332;-73
2022/05/14 08:00:18;;;;;;;;;;;;;;;26.11;nan;99969.44;4994057;28;20049;-72
2022/05/14 08:02:44;;;;;;;;;;;;;;;26.09;nan;99966.13;5008287;28;19943;-75
2022/05/14 08:05:11;;;;;;;;;;;;;;;25.82;nan;99968.47;5005566;28;19930;-73
2022/05/14 08:07:37;;;;;;;;;;;;;;;25.87;nan;99967.09;5006162;28;19993;-73
2022/05/14 08:10:03;;;;;;;;;;;;;;;25.99;nan;99962.91;5008028;28;20419;-75
2022/05/14 08:12:33;;;;;;;;;;;;;;;25.79;nan;99960.78;5007763;28;19953;-72
2022/05/14 08:14:59;;;;;;;;;;;;;;;25.41;nan;99965.44;5003510;28;19984;-72
2022/05/14 08:17:26;;;;;;;;;;;;;;;25.28;nan;99965.25;5007109;28;20483;-75
2022/05/14 08:19:51;;;;;;;;;;;;;;;25.23;nan;99952.34;5007181;28;19990;-73
2022/05/14 08:25:01;;;;;;;;;;;;;;;25.05;nan;99955.34;5007110;28;19951;-73
2022/05/14 08:27:26;;;;;;;;;;;;;;;25.15;nan;99952.44;5006960;28;19999;-73
2022/05/14 08:29:51;;;;;;;;;;;;;;;25.12;nan;99950.91;5006240;28;19975;-72
2022/05/14 08:32:18;;;;;;;;;;;;;;;25.04;nan;99945.63;5007203;28;19955;-72
2022/05/14 08:34:44;;;;;;;;;;;;;;;25.00;nan;99951.53;5006277;28;19945;-73
2022/05/14 08:37:09;;;;;;;;;;;;;;;24.88;nan;99953.84;5007711;28;19973;-73
2022/05/14 08:39:36;;;;;;;;;;;;;;;24.64;nan;99950.34;5006024;28;20026;-72
2022/05/14 08:42:01;;;;;;;;;;;;;;;24.58;nan;99951.06;5007386;28;19937;-73
2022/05/14 08:44:30;;;;;;;;;;;;;;;24.66;nan;99952.88;5005901;28;19931;-73
2022/05/14 08:46:57;;;;;;;;;;;;;;;24.60;nan;99954.41;5005901;28;19938;-73
2022/05/14 08:49:33;;;;;;;;;;;;;;;24.72;nan;99952.13;5005886;28;20490;-72
2022/05/14 08:51:59;;;;;;;;;;;;;;;24.73;nan;99945.72;5007132;28;20351;-72
2022/05/14 08:54:25;;;;;;;;;;;;;;;24.79;nan;99945.03;5005998;28;19965;-72
2022/05/14 08:56:56;;;;;;;;;;;;;;;24.90;nan;99947.28;5006525;28;19947;-72
2022/05/14 08:59:55;;;;;;;;;;;;;;;24.96;nan;99943.00;5006117;28;19951;-72
2022/05/14 09:02:24;;;;;;;;;;;;;;;24.74;nan;99939.38;4982096;28;19989;-72
2022/05/14 09:04:55;;;;;;;;;;;;;;;24.69;nan;99933.69;5004040;28;19931;-72
2022/05/14 09:07:20;;;;;;;;;;;;;;;24.70;nan;99935.34;5004990;28;19934;-71
2022/05/14 09:09:52;;;;;;;;;;;;;;;24.90;nan;99941.91;5003556;28;19952;-71
2022/05/14 09:12:20;;;;;;;;;;;;;;;25.11;nan;99935.81;5005563;28;20117;-72
2022/05/14 09:14:51;;;;;;;;;;;;;;;25.21;nan;99937.41;5005440;28;19935;-72
2022/05/14 09:17:20;;;;;;;;;;;;;;;25.28;nan;99936.50;5006167;28;20584;-72
2022/05/14 09:19:47;;;;;;;;;;;;;;;25.22;nan;99934.56;5004783;28;19957;-72
2022/05/14 09:22:18;;;;;;;;;;;;;;;25.25;nan;99934.19;5006241;28;19969;-72
2022/05/14 09:24:49;;;;;;;;;;;;;;;25.43;nan;99933.78;5005823;28;20000;-72
2022/05/14 09:27:22;;;;;;;;;;;;;;;25.47;nan;99937.81;5006095;28;20507;-72
2022/05/14 09:29:50;;;;;;;;;;;;;;;25.48;nan;99930.56;5006437;28;19958;-72
2022/05/14 09:32:22;;;;;;;;;;;;;;;25.55;nan;99928.81;5006331;28;19953;-72
2022/05/14 09:34:48;;;;;;;;;;;;;;;25.66;nan;99920.25;5000680;28;19961;-72
2022/05/14 09:37:19;;;;;;;;;;;;;;;25.76;nan;99923.47;5006374;28;19954;-72
2022/05/14 09:39:56;;;;;;;;;;;;;;;25.83;nan;99924.41;5004955;28;20001;-72
2022/05/14 09:42:25;;;;;;;;;;;;;;;25.92;nan;99924.28;5004758;28;20024;-72
2022/05/14 09:44:52;;;;;;;;;;;;;;;26.04;nan;99920.09;4985198;28;20407;-72
2022/05/14 09:47:23;;;;;;;;;;;;;;;25.94;nan;99916.88;5006203;28;20073;-72
2022/05/14 09:50:02;;;;;;;;;;;;;;;25.93;nan;99917.91;5007180;28;19997;-72
2022/05/14 09:52:29;;;;;;;;;;;;;;;26.08;nan;99915.97;5004659;28;20408;-72
2022/05/14 09:54:56;;;;;;;;;;;;;;;26.17;nan;99917.56;5003939;28;20426;-73
2022/05/14 09:57:28;;;;;;;;;;;;;;;26.32;nan;99919.34;5005293;28;19983;-73
2022/05/14 09:59:53;;;;;;;;;;;;;;;26.34;nan;99911.91;5002914;28;20005;-72
2022/05/14 10:02:26;;;;;;;;;;;;;;;26.35;nan;99910.88;4998702;28;19934;-72
2022/05/14 10:05:07;;;;;;;;;;;;;;;26.47;nan;99906.66;5002945;28;19971;-72
2022/05/14 10:07:36;;;;;;;;;;;;;;;26.44;nan;99909.72;5006665;28;19970;-73
2022/05/14 10:10:01;;;;;;;;;;;;;;;26.45;nan;99908.69;5005133;28;20439;-73
2022/05/14 10:12:31;;;;;;;;;;;;;;;26.43;nan;99903.47;5001703;28;19994;-74
2022/05/14 10:15:00;;;;;;;;;;;;;;;26.14;nan;99912.56;5013278;28;19939;-73
2022/05/14 10:17:44;;;;;;;;;;;;;;;26.16;nan;99899.72;4999583;28;19951;-73
2022/05/14 10:20:29;;;;;;;;;;;;;;;26.35;nan;99894.72;4997492;28;19951;-73
2022/05/14 10:28:42;;;;;;;;;;;;;;;26.22;nan;99901.66;4999293;28;19941;-73
2022/05/14 10:31:15;;;;;;;;;;;;;;;26.16;nan;99893.50;4998689;28;19986;-72
2022/05/14 10:33:41;;;;;;;;;;;;;;;26.30;nan;99892.59;5000684;28;19941;-73
2022/05/14 10:36:30;;;;;;;;;;;;;;;26.35;nan;99892.84;4998280;28;20700;-73
2022/05/14 10:39:05;;;;;;;;;;;;;;;26.33;nan;99886.84;4997853;28;19936;-73
2022/05/14 10:41:33;;;;;;;;;;;;;;;26.35;nan;99897.41;5000387;28;19964;-72
2022/05/14 10:44:05;;;;;;;;;;;;;;;26.41;nan;99896.63;4998852;28;20485;-73
2022/05/14 10:46:34;;;;;;;;;;;;;;;26.49;nan;99893.78;4997282;28;19983;-73
2022/05/14 10:48:59;;;;;;;;;;;;;;;26.58;nan;99887.28;4996871;28;19941;-73
2022/05/14 10:51:30;;;;;;;;;;;;;;;26.50;nan;99884.69;4998273;28;20147;-73
2022/05/14 10:53:56;;;;;;;;;;;;;;;26.46;nan;99883.41;4993891;28;19935;-72
2022/05/14 10:56:21;;;;;;;;;;;;;;;26.57;nan;99888.31;4995354;28;19981;-73
2022/05/14 10:58:57;;;;;;;;;;;;;;;26.63;nan;99879.47;4998581;28;19943;-73
2022/05/14 11:01:42;;;;;;;;;;;;;;;26.64;nan;99882.97;5046249;23;20072;-73
2022/05/14 11:04:19;;;;;;;;;;;;;;;26.70;nan;99887.56;4990984;28;20441;-73
2022/05/14 11:06:50;;;;;;;;;;;;;;;26.37;nan;99876.50;4997892;28;19930;-73
2022/05/14 11:09:20;;;;;;;;;;;;;;;26.13;nan;99866.97;4999546;28;19970;-74
2022/05/14 11:11:47;;;;;;;;;;;;;;;26.11;nan;99869.00;5000809;28;20037;-73
2022/05/14 11:14:12;;;;;;;;;;;;;;;26.02;nan;99865.63;5000241;28;19945;-72
2022/05/14 11:16:43;;;;;;;;;;;;;;;25.96;nan;99861.81;4995895;28;19954;-74
2022/05/14 11:19:09;;;;;;;;;;;;;;;25.93;nan;99867.59;4998117;28;20057;-73
2022/05/14 11:21:40;;;;;;;;;;;;;;;25.79;nan;99863.06;4993767;28;19951;-74
2022/05/14 11:24:06;;;;;;;;;;;;;;;25.49;nan;99862.28;4997685;28;19937;-75
2022/05/14 11:26:42;;;;;;;;;;;;;;;25.12;nan;99850.63;4997910;28;19946;-75
2022/05/14 11:29:12;;;;;;;;;;;;;;;24.76;nan;99859.41;4998515;28;20576;-74
2022/05/14 11:31:48;;;;;;;;;;;;;;;24.70;nan;99844.84;5001564;28;19954;-75
2022/05/14 11:34:17;;;;;;;;;;;;;;;24.83;nan;99844.22;5001986;28;19930;-74
2022/05/14 11:36:46;;;;;;;;;;;;;;;25.00;nan;99844.03;5000155;28;20450;-74
2022/05/14 11:39:21;;;;;;;;;;;;;;;24.98;nan;99856.81;5000786;28;20403;-74
2022/05/14 11:41:48;;;;;;;;;;;;;;;24.85;nan;99844.06;4999991;28;19990;-75
2022/05/14 11:44:25;;;;;;;;;;;;;;;24.80;nan;99843.75;5001483;28;20292;-73
2022/05/14 11:46:51;;;;;;;;;;;;;;;24.54;nan;99838.81;5000743;28;19989;-74
2022/05/14 11:49:27;;;;;;;;;;;;;;;24.46;nan;99832.50;5001425;28;19931;-73
2022/05/14 11:52:04;;;;;;;;;;;;;;;24.55;nan;99829.72;5004146;28;19970;-75
2022/05/14 11:54:34;;;;;;;;;;;;;;;24.72;nan;99832.06;5000481;28;20014;-74
2022/05/14 11:57:02;;;;;;;;;;;;;;;24.82;nan;99837.19;5000675;28;19951;-74
2022/05/14 11:59:40;;;;;;;;;;;;;;;24.70;nan;99838.66;5002292;28;19951;-74
2022/05/14 12:02:09;;;;;;;;;;;;;;;24.61;nan;99835.22;5000319;28;19938;-73
2022/05/14 12:04:39;;;;;;;;;;;;;;;24.69;nan;99832.44;5001854;28;20810;-74
2022/05/14 12:07:19;;;;;;;;;;;;;;;24.86;nan;99824.22;5000838;28;20719;-74
2022/05/14 12:09:53;;;;;;;;;;;;;;;25.03;nan;99822.16;5000099;28;19950;-73
2022/05/14 12:12:24;;;;;;;;;;;;;;;25.08;nan;99819.75;5001277;28;19934;-75
2022/05/14 12:14:49;;;;;;;;;;;;;;;25.12;nan;99816.50;4998529;28;20033;-74
2022/05/14 12:17:16;;;;;;;;;;;;;;;25.19;nan;99811.25;5000631;28;20399;-74
2022/05/14 12:19:43;;;;;;;;;;;;;;;25.14;nan;99819.00;5000864;28;19927;-74
2022/05/14 12:22:15;;;;;;;;;;;;;;;25.12;nan;99810.31;5000442;28;19934;-74
2022/05/14 12:24:51;;;;;;;;;;;;;;;25.14;nan;99813.63;5000484;28;19943;-76
2022/05/14 12:27:18;;;;;;;;;;;;;;;25.15;nan;99810.78;5001613;28;19930;-76
2022/05/14 12:29:52;;;;;;;;;;;;;;;25.21;nan;99808.38;5000253;28;19953;-74
2022/05/14 12:35:12;;;;;;;;;;;;;;;25.20;nan;99806.72;4997468;28;19949;-74
2022/05/14 12:37:40;;;;;;;;;;;;;;;25.22;nan;99807.34;4995551;28;19961;-75
2022/05/14 12:40:05;;;;;;;;;;;;;;;25.22;nan;99802.84;4999793;28;19987;-75
2022/05/14 12:42:40;;;;;;;;;;;;;;;25.23;nan;99796.41;4998838;28;19942;-74
2022/05/14 12:45:07;;;;;;;;;;;;;;;25.28;nan;99799.38;4995875;28;19930;-77
2022/05/14 12:47:34;;;;;;;;;;;;;;;25.21;nan;99800.31;5000906;28;20384;-75
2022/05/14 12:50:01;;;;;;;;;;;;;;;25.14;nan;99802.88;5000783;28;20097;-74
2022/05/14 12:52:28;;;;;;;;;;;;;;;25.10;nan;99799.72;5000084;28;19927;-75
2022/05/14 12:54:58;;;;;;;;;;;;;;;25.12;nan;99803.06;4999210;28;19969;-76
2022/05/14 12:57:24;;;;;;;;;;;;;;;25.13;nan;99790.47;5001304;28;19955;-75
2022/05/14 12:59:49;;;;;;;;;;;;;;;25.13;nan;99793.16;4995804;28;19958;-74
2022/05/14 13:02:18;;;;;;;;;;;;;;;25.06;nan;99784.16;5000985;28;19927;-76
2022/05/14 13:04:52;;;;;;;;;;;;;;;24.94;nan;99784.63;5017561;28;19935;-74
2022/05/14 13:07:21;;;;;;;;;;;;;;;24.77;nan;99775.13;4996850;28;19937;-76
2022/05/14 13:09:47;;;;;;;;;;;;;;;24.77;nan;99779.66;4999442;28;19946;-74
2022/05/14 13:12:17;;;;;;;;;;;;;;;24.87;nan;99764.94;4999307;28;19977;-75
2022/05/14 13:14:48;;;;;;;;;;;;;;;25.01;nan;99760.56;4990857;28;19927;-75
2022/05/14 13:17:13;;;;;;;;;;;;;;;25.12;nan;99759.25;4996444;28;20812;-75
2022/05/14 13:19:40;;;;;;;;;;;;;;;25.24;nan;99755.06;4996024;28;20398;-74
2022/05/14 13:22:11;;;;;;;;;;;;;;;25.35;nan;99751.88;5003898;28;19937;-75
2022/05/14 13:24:37;;;;;;;;;;;;;;;25.48;nan;99750.38;5006047;28;19958;-75
2022/05/14 13:27:09;;;;;;;;;;;;;;;25.57;nan;99746.50;5003389;28;19931;-72
2022/05/14 13:29:40;;;;;;;;;;;;;;;25.65;nan;99743.69;5004010;28;19938;-73
2022/05/14 13:32:11;;;;;;;;;;;;;;;25.69;nan;99736.09;5002496;28;19991;-72
2022/05/14 13:37:21;;;;;;;;;;;;;;;25.60;nan;99735.41;5001077;28;19950;-73